Sumifukumaru No.5 — JD3058 — position and weather

sailwx.info

Track history (hours):
 
Tides and Currents Weather Stations Pressure Air Temp Water Temp Dewpoint Dewpoint Depression Visibility Wind Speed Wind Dir Waves Ship Positions

Sumifukumaru No.5

Last reported at 2014-Dec-18 09:24 UTC. Time now 2014-Dec-19 15:50 UTC.
Position N 34°02' E 135°02'.

Length 75 m; draft 4.4 m.

Type: Cargo ship. MMSI: 431001371.

Date/timePositionNaut miles runAvg speedWind from/ knotsBaromVisibWave heightAir tempDewpointWater temp
2014-Dec-18 09:24N 34°02' E 135°02'1112.7
2014-Dec-18 08:33N 34°12' E 135°04'2 2.4
2014-Dec-18 07:33N 34°15' E 135°06'0 0.0
2014-Dec-18 06:33N 34°15' E 135°06'0 0.0
2014-Dec-18 05:33N 34°15' E 135°06'0 0.0
2014-Dec-18 04:33N 34°15' E 135°06'0 0.0
2014-Dec-18 03:33N 34°15' E 135°06'2 1.5
2014-Dec-18 02:33N 34°15' E 135°04'1211.8
2014-Dec-18 01:33N 34°25' E 135°11'1212.4
2014-Dec-18 00:33N 34°35' E 135°21'5 4.7
2014-Dec-17 23:25N 34°35' E 135°27'0 0.0
2014-Dec-16 14:04N 34°35' E 135°27'0 0.0
2014-Dec-16 12:16N 34°35' E 135°27'0 0.0
2014-Dec-16 11:22N 34°35' E 135°27'0 0.0
2014-Dec-16 10:10N 34°35' E 135°27'1 0.4
2014-Dec-16 07:23N 34°35' E 135°27'0 0.0
2014-Dec-16 03:23N 34°34' E 135°27'0 0.0
2014-Dec-16 01:05N 34°34' E 135°27'0 0.0
2014-Dec-15 23:17N 34°34' E 135°27'0 0.0
2014-Dec-15 22:20N 34°34' E 135°27'5 6.2
2014-Dec-15 21:32N 34°35' E 135°21'1111.4
2014-Dec-15 20:33N 34°27' E 135°12'1411.5
2014-Dec-15 19:23N 34°16' E 135°03'4 4.2
2014-Dec-15 18:31N 34°15' E 135°07'0 0.0
2014-Dec-15 17:31N 34°15' E 135°07'0 0.1
2014-Dec-15 16:31N 34°15' E 135°07'0 0.0
2014-Dec-15 15:31N 34°15' E 135°07'0 0.0
2014-Dec-15 14:31N 34°15' E 135°07'0 0.0
2014-Dec-15 13:31N 34°15' E 135°07'0 0.0
2014-Dec-15 12:31N 34°15' E 135°07'0 0.1
2014-Dec-15 11:31N 34°15' E 135°07'0 0.0
2014-Dec-15 10:28N 34°15' E 135°07'0 0.0
2014-Dec-15 09:31N 34°15' E 135°07'2 1.6
2014-Dec-15 08:33N 34°14' E 135°05'1312.5
2014-Dec-15 07:31N 34°11' E 134°50'  
2014-Dec-09 00:32N 34°40' E 134°49'1313.1
2014-Dec-08 23:33N 34°36' E 135°03'1211.5
2014-Dec-08 22:31N 34°24' E 135°05'1010.1
2014-Dec-08 21:33N 34°14' E 135°06'1 1.3
2014-Dec-08 20:31N 34°15' E 135°07'0 0.1
2014-Dec-08 19:31N 34°15' E 135°07'0 0.0
2014-Dec-08 18:25N 34°15' E 135°07'0 0.0
2014-Dec-08 17:28N 34°15' E 135°07'0 0.0
2014-Dec-08 16:31N 34°15' E 135°07'0 0.0
2014-Dec-08 15:31N 34°15' E 135°07'0 0.0
2014-Dec-08 14:31N 34°15' E 135°07'0 0.0
2014-Dec-08 13:31N 34°15' E 135°07'3 3.1
2014-Dec-08 12:34N 34°15' E 135°04'1212.0
2014-Dec-08 11:33N 34°26' E 135°10'1313.2
2014-Dec-08 10:33N 34°37' E 135°19'6 5.7
2014-Dec-08 09:26N 34°42' E 135°24'  
Track history (hours):
 
Tides and Currents Weather Stations Pressure Air Temp Water Temp Dewpoint Dewpoint Depression Visibility Wind Speed Wind Dir Waves Ship Positions

Sumifukumaru No.5

Last reported at 2014-Dec-18 09:24 UTC. Time now 2014-Dec-19 15:50 UTC.
Position N 34°02' E 135°02'.

Length 75 m; draft 4.4 m.

Type: Cargo ship. MMSI: 431001371.

Date/timePositionNaut miles runAvg speedWind from/ knotsBaromVisibWave heightAir tempDewpointWater temp
2014-Dec-18 09:24N 34°02' E 135°02'1112.7
2014-Dec-18 08:33N 34°12' E 135°04'2 2.4
2014-Dec-18 07:33N 34°15' E 135°06'0 0.0
2014-Dec-18 06:33N 34°15' E 135°06'0 0.0
2014-Dec-18 05:33N 34°15' E 135°06'0 0.0
2014-Dec-18 04:33N 34°15' E 135°06'0 0.0
2014-Dec-18 03:33N 34°15' E 135°06'2 1.5
2014-Dec-18 02:33N 34°15' E 135°04'1211.8
2014-Dec-18 01:33N 34°25' E 135°11'1212.4
2014-Dec-18 00:33N 34°35' E 135°21'5 4.7
2014-Dec-17 23:25N 34°35' E 135°27'0 0.0
2014-Dec-16 14:04N 34°35' E 135°27'0 0.0
2014-Dec-16 12:16N 34°35' E 135°27'0 0.0
2014-Dec-16 11:22N 34°35' E 135°27'0 0.0
2014-Dec-16 10:10N 34°35' E 135°27'1 0.4
2014-Dec-16 07:23N 34°35' E 135°27'0 0.0
2014-Dec-16 03:23N 34°34' E 135°27'0 0.0
2014-Dec-16 01:05N 34°34' E 135°27'0 0.0
2014-Dec-15 23:17N 34°34' E 135°27'0 0.0
2014-Dec-15 22:20N 34°34' E 135°27'5 6.2
2014-Dec-15 21:32N 34°35' E 135°21'1111.4
2014-Dec-15 20:33N 34°27' E 135°12'1411.5
2014-Dec-15 19:23N 34°16' E 135°03'4 4.2
2014-Dec-15 18:31N 34°15' E 135°07'0 0.0
2014-Dec-15 17:31N 34°15' E 135°07'0 0.1
2014-Dec-15 16:31N 34°15' E 135°07'0 0.0
2014-Dec-15 15:31N 34°15' E 135°07'0 0.0
2014-Dec-15 14:31N 34°15' E 135°07'0 0.0
2014-Dec-15 13:31N 34°15' E 135°07'0 0.0
2014-Dec-15 12:31N 34°15' E 135°07'0 0.1
2014-Dec-15 11:31N 34°15' E 135°07'0 0.0
2014-Dec-15 10:28N 34°15' E 135°07'0 0.0
2014-Dec-15 09:31N 34°15' E 135°07'2 1.6
2014-Dec-15 08:33N 34°14' E 135°05'1312.5
2014-Dec-15 07:31N 34°11' E 134°50'  
2014-Dec-09 00:32N 34°40' E 134°49'1313.1
2014-Dec-08 23:33N 34°36' E 135°03'1211.5
2014-Dec-08 22:31N 34°24' E 135°05'1010.1
2014-Dec-08 21:33N 34°14' E 135°06'1 1.3
2014-Dec-08 20:31N 34°15' E 135°07'0 0.1
2014-Dec-08 19:31N 34°15' E 135°07'0 0.0
2014-Dec-08 18:25N 34°15' E 135°07'0 0.0
2014-Dec-08 17:28N 34°15' E 135°07'0 0.0
2014-Dec-08 16:31N 34°15' E 135°07'0 0.0
2014-Dec-08 15:31N 34°15' E 135°07'0 0.0
2014-Dec-08 14:31N 34°15' E 135°07'0 0.0
2014-Dec-08 13:31N 34°15' E 135°07'3 3.1
2014-Dec-08 12:34N 34°15' E 135°04'1212.0
2014-Dec-08 11:33N 34°26' E 135°10'1313.2
2014-Dec-08 10:33N 34°37' E 135°19'6 5.7
2014-Dec-08 09:26N 34°42' E 135°24'  

Dump ship's entire track history